Terminal Aerodrome Forecast
Issued by NWS Sterling, VA

Current Version | Previous Version | Text Only | Print | Product List | Glossary Off
Versions: 1 2 3 4 5 6 7 8 9 10 11 12 13 14 15 16 17

979
FTUS41 KLWX 240530
TAFMRB
TAF
KMRB 240530Z 2406/2506 28005KT 6SM BR FEW070 SCT150
     FM240900 29004KT 4SM BR FEW080 SCT200
     FM241200 30005KT P6SM FEW070 FEW250
     FM241800 30009KT P6SM FEW200 FEW250
     FM250000 28005KT P6SM FEW200 FEW250=

USA.gov is the U.S. government's official web portal to all federal, state and local government web resources and services.